Vil Atlantic — A8VU4 — position and weather

sailwx.info

Track history (hours):
 
Tides and Currents Weather Stations Pressure Air Temp Water Temp Dewpoint Dewpoint Depression Visibility Wind Speed Wind Dir Waves Ship Positions

Vil Atlantic

Last reported at 2017-Nov-11 15:13 UTC. Time now 2017-Nov-24 20:58 UTC.
Position N 44°28' E 012°15'.
Warning: this ship's position is 13 days out of date.

Length 190 m; draft 9.9 m.

Type: Cargo ship. MMSI: 636092044.

Date/timePositionNaut miles runAvg speedWind from/ knotsBaromVisibWave heightAir tempDewpointWater temp
2017-Nov-11 15:13N 44°28' E 012°15'39 2.7
2017-Nov-11 00:43N 44°26' E 013°10'210.7
2017-Nov-11 00:30N 44°24' E 013°12'510.9
2017-Nov-11 00:00N 44°19' E 013°15'  
2017-Nov-05 12:11N 46°30' E 030°55'42 8.9
2017-Nov-05 07:31N 46°38' E 031°55'0 9.0
2017-Nov-05 07:30N 46°38' E 031°55'4 7.6
2017-Nov-05 07:00N 46°42' E 031°56'4 8.6
2017-Nov-05 06:30N 46°46' E 031°53'4 8.3
2017-Nov-05 06:00N 46°50' E 031°56'1 2.2
2017-Nov-05 05:30N 46°50' E 031°57'0 0.0
2017-Nov-05 05:00N 46°50' E 031°57'0 0.0
2017-Nov-05 04:27N 46°50' E 031°57'0 0.0
2017-Nov-05 04:00N 46°50' E 031°57'0 0.0
2017-Nov-05 03:30N 46°50' E 031°57'0 0.0
2017-Nov-05 03:00N 46°50' E 031°57'0 0.0
2017-Nov-05 02:30N 46°50' E 031°57'0 0.0
2017-Nov-05 02:00N 46°50' E 031°57'0 0.0
2017-Nov-05 01:30N 46°50' E 031°57'0 0.0
2017-Nov-05 01:00N 46°50' E 031°57'0 0.0
2017-Nov-05 00:30N 46°50' E 031°57'0 0.0
2017-Nov-05 00:00N 46°50' E 031°57'0 0.0
2017-Nov-04 23:30N 46°50' E 031°57'0 0.0
2017-Nov-04 23:00N 46°50' E 031°57'0 0.0
2017-Nov-04 22:30N 46°50' E 031°57'0 0.0
2017-Nov-04 22:00N 46°50' E 031°57'0 0.0
2017-Nov-04 21:30N 46°50' E 031°57'0 0.0
2017-Nov-04 21:00N 46°50' E 031°57'0 0.0
2017-Nov-04 20:30N 46°50' E 031°57'0 0.0
2017-Nov-04 20:00N 46°50' E 031°57'0 0.0
2017-Nov-04 19:30N 46°50' E 031°57'0 0.0
2017-Nov-04 19:00N 46°50' E 031°57'0 0.0
2017-Nov-04 18:30N 46°50' E 031°57'0 0.0
2017-Nov-04 18:00N 46°50' E 031°57'0 0.0
2017-Nov-04 17:30N 46°50' E 031°57'0 0.0
2017-Nov-03 05:29N 46°50' E 031°57'0 0.0
2017-Nov-03 04:47N 46°50' E 031°57'0 0.0
2017-Nov-03 04:29N 46°50' E 031°57'0 0.0
2017-Nov-03 03:41N 46°50' E 031°57'0 0.0
2017-Nov-03 03:29N 46°50' E 031°57'0 0.0
2017-Nov-03 02:35N 46°50' E 031°57'0 0.0
2017-Nov-03 02:09N 46°50' E 031°57'0 0.0
2017-Nov-03 01:59N 46°50' E 031°57'0 0.0
2017-Nov-03 01:29N 46°50' E 031°57'0 0.0
2017-Nov-03 00:47N 46°50' E 031°57'0 0.0
2017-Nov-02 23:56N 46°50' E 031°57'0 0.0
2017-Nov-02 22:51N 46°50' E 031°57'0 0.0
2017-Nov-02 21:20N 46°50' E 031°57'0 0.0
2017-Nov-02 16:57N 46°50' E 031°57'0 0.0
2017-Nov-02 02:45N 46°50' E 031°57'0 0.0
2017-Nov-02 02:18N 46°50' E 031°57'0 0.0
2017-Nov-02 01:54N 46°50' E 031°57'0 0.0
2017-Nov-02 01:30N 46°50' E 031°57'0 0.0
2017-Nov-02 00:57N 46°50' E 031°57'0 0.0
2017-Nov-02 00:30N 46°50' E 031°57'0 0.0
2017-Nov-02 00:00N 46°50' E 031°57'0 0.0
2017-Nov-01 23:27N 46°50' E 031°57'0 0.0
2017-Nov-01 22:54N 46°50' E 031°57'0 0.0
2017-Nov-01 22:30N 46°50' E 031°57'0 0.0
2017-Nov-01 22:00N 46°50' E 031°57'0 0.0
2017-Nov-01 21:24N 46°50' E 031°57'0 0.0
2017-Nov-01 21:00N 46°50' E 031°57'0 0.0
2017-Nov-01 20:24N 46°50' E 031°57'0 0.0
2017-Nov-01 19:51N 46°50' E 031°57'0 0.0
2017-Nov-01 19:30N 46°50' E 031°57'0 0.0
2017-Nov-01 19:00N 46°50' E 031°57'0 0.0
2017-Nov-01 18:30N 46°50' E 031°57'  
Track history (hours):
 
Tides and Currents Weather Stations Pressure Air Temp Water Temp Dewpoint Dewpoint Depression Visibility Wind Speed Wind Dir Waves Ship Positions

Vil Atlantic

Last reported at 2017-Nov-11 15:13 UTC. Time now 2017-Nov-24 20:58 UTC.
Position N 44°28' E 012°15'.
Warning: this ship's position is 13 days out of date.

Length 190 m; draft 9.9 m.

Type: Cargo ship. MMSI: 636092044.

Date/timePositionNaut miles runAvg speedWind from/ knotsBaromVisibWave heightAir tempDewpointWater temp
2017-Nov-11 15:13N 44°28' E 012°15'39 2.7
2017-Nov-11 00:43N 44°26' E 013°10'210.7
2017-Nov-11 00:30N 44°24' E 013°12'510.9
2017-Nov-11 00:00N 44°19' E 013°15'  
2017-Nov-05 12:11N 46°30' E 030°55'42 8.9
2017-Nov-05 07:31N 46°38' E 031°55'0 9.0
2017-Nov-05 07:30N 46°38' E 031°55'4 7.6
2017-Nov-05 07:00N 46°42' E 031°56'4 8.6
2017-Nov-05 06:30N 46°46' E 031°53'4 8.3
2017-Nov-05 06:00N 46°50' E 031°56'1 2.2
2017-Nov-05 05:30N 46°50' E 031°57'0 0.0
2017-Nov-05 05:00N 46°50' E 031°57'0 0.0
2017-Nov-05 04:27N 46°50' E 031°57'0 0.0
2017-Nov-05 04:00N 46°50' E 031°57'0 0.0
2017-Nov-05 03:30N 46°50' E 031°57'0 0.0
2017-Nov-05 03:00N 46°50' E 031°57'0 0.0
2017-Nov-05 02:30N 46°50' E 031°57'0 0.0
2017-Nov-05 02:00N 46°50' E 031°57'0 0.0
2017-Nov-05 01:30N 46°50' E 031°57'0 0.0
2017-Nov-05 01:00N 46°50' E 031°57'0 0.0
2017-Nov-05 00:30N 46°50' E 031°57'0 0.0
2017-Nov-05 00:00N 46°50' E 031°57'0 0.0
2017-Nov-04 23:30N 46°50' E 031°57'0 0.0
2017-Nov-04 23:00N 46°50' E 031°57'0 0.0
2017-Nov-04 22:30N 46°50' E 031°57'0 0.0
2017-Nov-04 22:00N 46°50' E 031°57'0 0.0
2017-Nov-04 21:30N 46°50' E 031°57'0 0.0
2017-Nov-04 21:00N 46°50' E 031°57'0 0.0
2017-Nov-04 20:30N 46°50' E 031°57'0 0.0
2017-Nov-04 20:00N 46°50' E 031°57'0 0.0
2017-Nov-04 19:30N 46°50' E 031°57'0 0.0
2017-Nov-04 19:00N 46°50' E 031°57'0 0.0
2017-Nov-04 18:30N 46°50' E 031°57'0 0.0
2017-Nov-04 18:00N 46°50' E 031°57'0 0.0
2017-Nov-04 17:30N 46°50' E 031°57'0 0.0
2017-Nov-03 05:29N 46°50' E 031°57'0 0.0
2017-Nov-03 04:47N 46°50' E 031°57'0 0.0
2017-Nov-03 04:29N 46°50' E 031°57'0 0.0
2017-Nov-03 03:41N 46°50' E 031°57'0 0.0
2017-Nov-03 03:29N 46°50' E 031°57'0 0.0
2017-Nov-03 02:35N 46°50' E 031°57'0 0.0
2017-Nov-03 02:09N 46°50' E 031°57'0 0.0
2017-Nov-03 01:59N 46°50' E 031°57'0 0.0
2017-Nov-03 01:29N 46°50' E 031°57'0 0.0
2017-Nov-03 00:47N 46°50' E 031°57'0 0.0
2017-Nov-02 23:56N 46°50' E 031°57'0 0.0
2017-Nov-02 22:51N 46°50' E 031°57'0 0.0
2017-Nov-02 21:20N 46°50' E 031°57'0 0.0
2017-Nov-02 16:57N 46°50' E 031°57'0 0.0
2017-Nov-02 02:45N 46°50' E 031°57'0 0.0
2017-Nov-02 02:18N 46°50' E 031°57'0 0.0
2017-Nov-02 01:54N 46°50' E 031°57'0 0.0
2017-Nov-02 01:30N 46°50' E 031°57'0 0.0
2017-Nov-02 00:57N 46°50' E 031°57'0 0.0
2017-Nov-02 00:30N 46°50' E 031°57'0 0.0
2017-Nov-02 00:00N 46°50' E 031°57'0 0.0
2017-Nov-01 23:27N 46°50' E 031°57'0 0.0
2017-Nov-01 22:54N 46°50' E 031°57'0 0.0
2017-Nov-01 22:30N 46°50' E 031°57'0 0.0
2017-Nov-01 22:00N 46°50' E 031°57'0 0.0
2017-Nov-01 21:24N 46°50' E 031°57'0 0.0
2017-Nov-01 21:00N 46°50' E 031°57'0 0.0
2017-Nov-01 20:24N 46°50' E 031°57'0 0.0
2017-Nov-01 19:51N 46°50' E 031°57'0 0.0
2017-Nov-01 19:30N 46°50' E 031°57'0 0.0
2017-Nov-01 19:00N 46°50' E 031°57'0 0.0
2017-Nov-01 18:30N 46°50' E 031°57'  

Dump ship's entire track history